Time;durP1;ratioP1;P1;durP2;ratioP2;P2;SDS_P1;SDS_P2;PMS_P1;PMS_P2;Temp;Humidity;BMP_temperature;BMP_pressure;BME280_temperature;BME280_humidity;BME280_pressure;Samples;Min_cycle;Max_cycle;Signal;HPM_P1;HPM_P2
2023/06/24 00:00:23;;;;;;;3.03;2.72;;;23.60;75.40;;;;;;5090551;28;20545;-36
2023/06/24 00:02:51;;;;;;;3.72;3.33;;;22.60;75.00;;;;;;5093451;28;20497;-39
2023/06/24 00:05:19;;;;;;;3.30;2.78;;;23.00;75.20;;;;;;5093905;28;20055;-41
2023/06/24 00:07:45;;;;;;;3.30;3.00;;;24.50;75.80;;;;;;5094143;28;20102;-40
2023/06/24 00:10:13;;;;;;;2.92;2.63;;;;;;;;;;5093990;28;20054;-35
2023/06/24 00:12:41;;;;;;;3.13;2.78;;;22.70;75.20;;;;;;5093540;28;20467;-39
2023/06/24 00:15:09;;;;;;;3.25;2.95;;;23.00;74.90;;;;;;5092228;28;20048;-40
2023/06/24 00:17:35;;;;;;;4.38;2.88;;;23.10;62.20;;;;;;5093993;28;20130;-38
2023/06/24 00:20:05;;;;;;;3.22;2.60;;;22.30;68.20;;;;;;5093476;28;20079;-39
2023/06/24 00:22:33;;;;;;;6.03;3.17;;;23.20;60.30;;;;;;5093586;28;20451;-37
2023/06/24 00:25:00;;;;;;;3.10;2.80;;;23.50;75.10;;;;;;5093530;28;20048;-37
2023/06/24 00:27:27;;;;;;;3.10;2.80;;;;;;;;;;5093297;28;20056;-34
2023/06/24 00:29:54;;;;;;;3.20;2.80;;;23.10;75.50;;;;;;5093707;28;20062;-40
2023/06/24 00:32:21;;;;;;;3.47;3.10;;;23.60;75.90;;;;;;5091636;28;20151;-40
2023/06/24 00:34:47;;;;;;;3.85;2.90;;;23.00;62.50;;;;;;5093415;28;20048;-35
2023/06/24 00:37:15;;;;;;;3.42;3.08;;;23.30;75.40;;;;;;5091992;28;20408;-37
2023/06/24 00:39:43;;;;;;;2.97;2.47;;;22.80;65.60;;;;;;5084788;28;20048;-36
2023/06/24 00:42:09;;;;;;;3.22;2.75;;;24.20;64.50;;;;;;5076595;28;20489;-39
2023/06/24 00:44:37;;;;;;;3.10;2.80;;;23.80;76.50;;;;;;5093213;28;20127;-37
2023/06/24 00:47:04;;;;;;;2.72;2.53;;;23.10;62.10;;;;;;5091387;28;20130;-35
2023/06/24 00:49:31;;;;;;;3.25;2.67;;;23.30;75.50;;;;;;5081973;28;20477;-41
2023/06/24 00:52:00;;;;;;;3.55;3.00;;;23.00;75.30;;;;;;5093052;28;20054;-37
2023/06/24 00:54:30;;;;;;;3.90;3.10;;;23.30;75.30;;;;;;5092650;28;20093;-39
2023/06/24 00:57:00;;;;;;;3.28;2.97;;;22.50;64.00;;;;;;5092926;28;20129;-38
2023/06/24 00:59:28;;;;;;;3.17;2.88;;;24.40;75.60;;;;;;5092951;28;20480;-37
2023/06/24 01:01:55;;;;;;;2.97;2.67;;;23.40;71.50;;;;;;5092816;28;20408;-39
2023/06/24 01:04:24;;;;;;;4.00;2.92;;;;;;;;;;5078977;28;20135;-34
2023/06/24 01:06:51;;;;;;;5.10;2.90;;;23.30;75.50;;;;;;5072561;28;20044;-40
2023/06/24 01:09:18;;;;;;;3.63;3.13;;;23.40;76.30;;;;;;5073213;28;20131;-38
2023/06/24 01:11:45;;;;;;;3.35;2.95;;;;;;;;;;5072560;28;20045;-37
2023/06/24 01:14:13;;;;;;;3.47;3.08;;;22.80;75.50;;;;;;5072273;28;20054;-37
2023/06/24 01:16:45;;;;;;;3.13;2.72;;;22.40;75.40;;;;;;5072422;28;20129;-39
2023/06/24 01:19:24;;;;;;;3.45;2.90;;;23.70;76.00;;;;;;5073321;28;20047;-37
2023/06/24 01:21:55;;;;;;;3.42;3.08;;;23.20;60.40;;;;;;5072256;28;20048;-34
2023/06/24 01:24:32;;;;;;;3.20;2.90;;;24.10;75.90;;;;;;5071966;28;20577;-40
2023/06/24 01:27:26;;;;;;;3.00;2.70;;;23.30;75.30;;;;;;5072023;28;20113;-40
2023/06/24 01:30:04;;;;;;;3.40;2.70;;;23.40;61.40;;;;;;5072079;28;20048;-35
2023/06/24 01:32:35;;;;;;;3.20;2.78;;;23.40;68.80;;;;;;5071875;28;20443;-39
2023/06/24 01:35:03;;;;;;;3.15;2.85;;;23.80;75.70;;;;;;5073266;28;20416;-37
2023/06/24 01:37:33;;;;;;;3.50;3.13;;;23.20;60.40;;;;;;5085434;28;20048;-40
2023/06/24 01:40:08;;;;;;;3.58;3.08;;;23.10;62.10;;;;;;5091807;28;20076;-36
2023/06/24 01:42:35;;;;;;;3.45;3.10;;;22.80;76.00;;;;;;5091691;28;20052;-40
2023/06/24 01:45:01;;;;;;;3.30;3.00;;;22.70;64.70;;;;;;5092344;28;20131;-37
2023/06/24 01:47:28;;;;;;;3.05;2.75;;;23.50;75.40;;;;;;5092220;28;20102;-37
2023/06/24 01:49:56;;;;;;;2.88;2.63;;;23.50;75.70;;;;;;5091370;28;20055;-31
2023/06/24 01:52:23;;;;;;;3.25;2.75;;;23.40;75.90;;;;;;5082006;28;20131;-32
2023/06/24 01:54:50;;;;;;;5.68;2.83;;;22.70;71.10;;;;;;5071726;28;20048;-32
2023/06/24 01:57:17;;;;;;;2.95;2.67;;;22.90;75.30;;;;;;5071721;28;20088;-32
2023/06/24 01:59:44;;;;;;;3.40;3.10;;;23.10;75.80;;;;;;5071624;28;20486;-33
2023/06/24 02:02:11;;;;;;;3.45;3.03;;;;;;;;;;5071484;28;20048;-36
2023/06/24 02:04:38;;;;;;;3.22;2.92;;;;;;;;;;5071726;28;20050;-33
2023/06/24 02:07:06;;;;;;;3.70;3.10;;;23.10;60.30;;;;;;5071440;28;20131;-35
2023/06/24 02:09:33;;;;;;;3.83;3.25;;;22.50;75.10;;;;;;5072169;28;20052;-31
2023/06/24 02:12:00;;;;;;;3.08;2.78;;;;;;;;;;5071826;28;20055;-32
2023/06/24 02:14:27;;;;;;;3.67;3.28;;;23.10;75.30;;;;;;5071599;28;20131;-32
2023/06/24 02:16:56;;;;;;;3.03;2.75;;;22.70;75.60;;;;;;5071765;28;20131;-32
2023/06/24 02:19:23;;;;;;;4.03;3.17;;;23.20;60.40;;;;;;5071635;28;20071;-33
2023/06/24 02:21:51;;;;;;;3.55;2.80;;;23.00;75.70;;;;;;5071245;28;20098;-32
2023/06/24 02:24:19;;;;;;;3.42;3.10;;;23.00;76.30;;;;;;5072275;28;20057;-31
2023/06/24 02:26:46;;;;;;;3.90;3.10;;;;;;;;;;5071698;28;20150;-33
2023/06/24 02:29:13;;;;;;;3.28;2.97;;;24.00;71.20;;;;;;5071623;28;20048;-34
2023/06/24 02:31:40;;;;;;;4.28;3.03;;;22.70;75.40;;;;;;5071104;28;20131;-32
2023/06/24 02:34:07;;;;;;;3.85;2.90;;;22.90;72.20;;;;;;5071223;28;20468;-33
2023/06/24 02:36:34;;;;;;;3.33;2.92;;;23.20;76.10;;;;;;5090718;28;20127;-32
2023/06/24 02:39:00;;;;;;;3.88;3.10;;;22.80;76.00;;;;;;5091844;28;20434;-32
2023/06/24 02:41:28;;;;;;;2.97;2.67;;;22.80;66.30;;;;;;5073272;28;20135;-33
2023/06/24 02:43:56;;;;;;;3.50;2.80;;;;;;;;;;5071103;28;20153;-33
2023/06/24 02:46:22;;;;;;;3.08;2.78;;;23.40;76.40;;;;;;5071453;28;20131;-32
2023/06/24 02:48:49;;;;;;;3.28;2.90;;;;;;;;;;5074224;28;20124;-32
2023/06/24 02:51:16;;;;;;;3.30;3.00;;;23.10;75.90;;;;;;5091692;28;20150;-32
2023/06/24 02:53:43;;;;;;;3.35;2.80;;;;;;;;;;5091222;28;20043;-32
2023/06/24 02:56:10;;;;;;;3.35;3.05;;;22.70;69.90;;;;;;5083834;28;20049;-34
2023/06/24 02:58:39;;;;;;;3.20;2.90;;;23.70;75.60;;;;;;5071097;28;20135;-32
2023/06/24 03:01:08;;;;;;;3.15;2.85;;;23.00;70.40;;;;;;5073471;28;20080;-34
2023/06/24 03:03:34;;;;;;;4.55;3.10;;;23.40;65.60;;;;;;5074405;28;20044;-32
2023/06/24 03:06:02;;;;;;;3.92;3.30;;;23.10;75.40;;;;;;5074799;28;20143;-32
2023/06/24 03:08:29;;;;;;;4.00;2.85;;;23.00;75.60;;;;;;5074954;28;20128;-32
2023/06/24 03:10:56;;;;;;;3.67;2.90;;;;;;;;;;5074643;28;20122;-34
2023/06/24 03:13:23;;;;;;;5.47;3.13;;;;;;;;;;5075213;28;20051;-33
2023/06/24 03:15:52;;;;;;;3.38;3.00;;;23.00;64.50;;;;;;5074669;28;20478;-32
2023/06/24 03:18:18;;;;;;;3.65;3.00;;;23.40;62.00;;;;;;5074563;28;20044;-33
2023/06/24 03:20:46;;;;;;;3.70;3.10;;;23.50;75.50;;;;;;5074652;28;20048;-32
2023/06/24 03:23:13;;;;;;;3.33;3.03;;;23.20;76.20;;;;;;5073999;28;20460;-33
2023/06/24 03:25:40;;;;;;;6.75;3.15;;;22.90;75.30;;;;;;5074548;28;20048;-32
2023/06/24 03:28:07;;;;;;;3.60;3.20;;;;;;;;;;5075647;28;20097;-37
2023/06/24 03:30:34;;;;;;;3.50;3.20;;;22.90;75.20;;;;;;5075623;28;20048;-32
2023/06/24 03:33:02;;;;;;;3.72;3.15;;;23.00;60.20;;;;;;5094301;28;20131;-35
2023/06/24 03:35:29;;;;;;;3.67;3.15;;;;;;;;;;5094477;28;20044;-32
2023/06/24 03:37:56;;;;;;;4.57;3.80;;;22.50;72.30;;;;;;5093870;28;20055;-32
2023/06/24 03:40:23;;;;;;;3.40;3.10;;;;;;;;;;5094375;28;20584;-35
2023/06/24 03:42:50;;;;;;;3.55;3.08;;;23.80;75.70;;;;;;5093287;28;20556;-32
2023/06/24 03:45:16;;;;;;;3.33;3.00;;;22.60;62.00;;;;;;5085646;28;20135;-33
2023/06/24 03:47:44;;;;;;;3.20;2.90;;;;;;;;;;5094005;28;20072;-33
2023/06/24 03:50:12;;;;;;;3.47;2.85;;;23.00;60.20;;;;;;5094335;28;20054;-35
2023/06/24 03:52:38;;;;;;;3.70;3.03;;;22.40;74.80;;;;;;5094045;28;20128;-32
2023/06/24 03:55:06;;;;;;;3.15;2.85;;;23.00;60.20;;;;;;5094143;28;20131;-35
2023/06/24 03:57:33;;;;;;;3.22;2.88;;;;;;;;;;5094118;28;20105;-31
2023/06/24 04:00:00;;;;;;;3.10;2.80;;;23.00;62.40;;;;;;5092118;28;20131;-33
2023/06/24 04:02:26;;;;;;;5.28;3.22;;;22.70;75.20;;;;;;5093584;28;20107;-33
2023/06/24 04:04:56;;;;;;;3.78;3.15;;;22.50;75.20;;;;;;5094114;28;20052;-32
2023/06/24 04:07:28;;;;;;;3.47;3.17;;;22.60;75.30;;;;;;5083186;28;20051;-33
2023/06/24 04:09:55;;;;;;;4.18;2.92;;;23.70;75.90;;;;;;5073543;28;20563;-33
2023/06/24 04:12:23;;;;;;;4.20;3.80;;;;;;;;;;5072303;28;20083;-33
2023/06/24 04:14:49;;;;;;;6.05;4.57;;;22.90;74.90;;;;;;5073622;28;20051;-32
2023/06/24 04:17:16;;;;;;;5.45;4.82;;;;;;;;;;5089304;28;20132;-34
2023/06/24 04:19:44;;;;;;;6.18;5.20;;;;;;;;;;5093674;28;20048;-32
2023/06/24 04:22:11;;;;;;;7.32;5.47;;;22.50;71.00;;;;;;5093413;28;20055;-34
2023/06/24 04:24:39;;;;;;;7.30;5.85;;;22.30;75.30;;;;;;5093471;28;20142;-32
2023/06/24 04:27:07;;;;;;;6.03;5.35;;;22.40;59.90;;;;;;5093320;28;20124;-32
2023/06/24 04:29:35;;;;;;;6.45;5.70;;;;;;;;;;5093762;28;20047;-36
2023/06/24 04:32:02;;;;;;;7.88;6.15;;;21.90;67.00;;;;;;5090777;28;20044;-35
2023/06/24 04:34:29;;;;;;;7.45;5.60;;;;;;;;;;5072931;28;20449;-35
2023/06/24 04:36:55;;;;;;;6.07;5.43;;;22.20;64.00;;;;;;5081680;28;20780;-32
2023/06/24 04:39:22;;;;;;;8.00;5.65;;;23.20;76.40;;;;;;5093080;28;20139;-33
2023/06/24 04:41:50;;;;;;;8.02;5.50;;;22.80;66.40;;;;;;5093091;28;20093;-33
2023/06/24 04:44:17;;;;;;;7.53;5.93;;;22.40;64.50;;;;;;5092807;28;20537;-33
2023/06/24 04:46:44;;;;;;;7.72;5.53;;;22.90;76.60;;;;;;5093278;28;20500;-31
2023/06/24 04:49:11;;;;;;;10.18;6.18;;;;;;;;;;5087580;28;20050;-30
2023/06/24 04:51:38;;;;;;;8.02;6.35;;;21.50;77.00;;;;;;5082394;28;20044;-32
2023/06/24 04:54:05;;;;;;;7.85;6.18;;;21.90;77.50;;;;;;5081737;28;20460;-33
2023/06/24 04:56:32;;;;;;;7.43;6.03;;;22.00;77.70;;;;;;5082537;28;20051;-33
2023/06/24 04:59:00;;;;;;;7.15;5.85;;;22.10;74.80;;;;;;5092672;28;20058;-32
2023/06/24 05:01:27;;;;;;;7.38;5.97;;;20.70;76.60;;;;;;5087827;28;20050;-32
2023/06/24 05:03:54;;;;;;;6.82;5.85;;;;;;;;;;5091479;28;20412;-37
2023/06/24 05:06:21;;;;;;;7.28;5.75;;;21.70;77.40;;;;;;5089799;28;20515;-32
2023/06/24 05:08:48;;;;;;;7.05;5.05;;;;;;;;;;5092831;28;20047;-35
2023/06/24 05:11:14;;;;;;;6.72;6.03;;;21.90;77.70;;;;;;5092982;28;20055;-32
2023/06/24 05:13:41;;;;;;;6.70;6.00;;;21.90;78.00;;;;;;5092369;28;20515;-37
2023/06/24 05:16:09;;;;;;;9.90;6.15;;;21.40;61.90;;;;;;5092787;28;20131;-34
2023/06/24 05:18:36;;;;;;;7.10;6.10;;;;;;;;;;5092729;28;20123;-34
2023/06/24 05:21:03;;;;;;;9.30;5.63;;;21.60;78.30;;;;;;5091004;28;20055;-32
2023/06/24 05:23:30;;;;;;;7.97;5.93;;;;;;;;;;5091898;28;20123;-35
2023/06/24 05:25:57;;;;;;;6.70;5.45;;;21.40;77.90;;;;;;5092829;28;20131;-32
2023/06/24 05:28:24;;;;;;;7.57;5.30;;;21.20;77.90;;;;;;5092289;28;20052;-31
2023/06/24 05:30:51;;;;;;;7.30;5.43;;;;;;;;;;5088348;28;20416;-35
2023/06/24 05:33:19;;;;;;;7.15;5.93;;;20.50;78.10;;;;;;5092017;28;20412;-32
2023/06/24 05:35:45;;;;;;;6.60;5.82;;;21.20;77.00;;;;;;5092148;28;20052;-32
2023/06/24 05:38:12;;;;;;;7.82;5.80;;;;;;;;;;5076659;28;20472;-33
2023/06/24 05:40:39;;;;;;;7.60;5.75;;;20.90;79.00;;;;;;5072014;28;20148;-32
2023/06/24 05:43:06;;;;;;;6.47;5.32;;;;;;;;;;5090506;28;20158;-32
2023/06/24 05:45:33;;;;;;;5.95;5.35;;;;;;;;;;5092102;28;20135;-35
2023/06/24 05:48:00;;;;;;;6.13;4.93;;;21.10;76.40;;;;;;5092332;28;20130;-33
2023/06/24 05:50:28;;;;;;;6.82;5.32;;;21.40;62.90;;;;;;5091451;28;20127;-35
2023/06/24 05:52:55;;;;;;;6.53;5.30;;;;;;;;;;5089216;28;20123;-33
2023/06/24 05:55:22;;;;;;;6.93;5.07;;;21.00;78.40;;;;;;5079790;28;20193;-32
2023/06/24 05:57:48;;;;;;;6.85;5.10;;;21.40;78.70;;;;;;5092412;28;20131;-32
2023/06/24 06:00:16;;;;;;;5.40;4.78;;;21.40;62.90;;;;;;5091872;28;20126;-34
2023/06/24 06:02:42;;;;;;;6.97;4.82;;;21.20;78.60;;;;;;5091897;28;20075;-32
2023/06/24 06:05:09;;;;;;;8.52;5.45;;;21.50;79.00;;;;;;5091291;28;20054;-32
2023/06/24 06:07:39;;;;;;;6.82;5.38;;;21.10;77.90;;;;;;5091410;28;20146;-32
2023/06/24 06:10:07;;;;;;;6.50;5.20;;;21.60;68.20;;;;;;5084289;28;20059;-35
2023/06/24 06:12:34;;;;;;;5.60;4.57;;;;;;;;;;5084967;28;20540;-36
2023/06/24 06:15:00;;;;;;;5.75;4.78;;;21.40;78.60;;;;;;5085488;28;20464;-33
2023/06/24 06:17:27;;;;;;;6.65;4.38;;;21.50;78.80;;;;;;5087178;28;20050;-32
2023/06/24 06:19:54;;;;;;;5.22;4.68;;;;;;;;;;5083320;28;20155;-39
2023/06/24 06:22:21;;;;;;;8.40;4.93;;;21.40;78.80;;;;;;5082440;28;20245;-32
2023/06/24 06:24:49;;;;;;;7.25;4.90;;;21.60;78.90;;;;;;5079861;28;20545;-32
2023/06/24 06:27:16;;;;;;;6.75;4.63;;;21.60;79.00;;;;;;5071040;28;20127;-31
2023/06/24 06:29:42;;;;;;;6.60;5.00;;;21.20;70.00;;;;;;5071059;28;20128;-33
2023/06/24 06:32:09;;;;;;;7.18;4.97;;;21.60;78.70;;;;;;5071013;28;20055;-40
2023/06/24 06:34:37;;;;;;;6.95;4.88;;;;;;;;;;5071374;28;20119;-37
2023/06/24 06:37:03;;;;;;;7.93;4.97;;;21.80;79.20;;;;;;5078438;28;20500;-41
2023/06/24 06:39:30;;;;;;;7.22;4.75;;;22.10;79.50;;;;;;5085000;28;20040;-40
2023/06/24 06:41:58;;;;;;;5.68;4.90;;;21.40;75.20;;;;;;5082556;28;20439;-39
2023/06/24 06:44:25;;;;;;;7.63;5.18;;;21.90;73.60;;;;;;5084153;28;20048;-40
2023/06/24 06:46:52;;;;;;;8.13;5.18;;;21.60;78.30;;;;;;5095279;28;20051;-36
2023/06/24 06:49:19;;;;;;;8.18;4.75;;;;;;;;;;5095767;28;20044;-38
2023/06/24 06:51:45;;;;;;;6.80;5.30;;;21.70;78.80;;;;;;5095367;28;20136;-40
2023/06/24 06:54:12;;;;;;;7.38;4.97;;;21.90;78.80;;;;;;5095288;28;20400;-40
2023/06/24 06:56:39;;;;;;;8.63;5.25;;;21.80;79.00;;;;;;5095252;28;20044;-41
2023/06/24 06:59:07;;;;;;;7.65;5.45;;;21.50;78.50;;;;;;5088574;28;20048;-40
2023/06/24 07:01:34;;;;;;;8.85;4.60;;;22.20;79.10;;;;;;5094922;28;20056;-38
2023/06/24 07:04:01;;;;;;;9.27;4.80;;;22.00;79.10;;;;;;5093167;28;20468;-39
2023/06/24 07:06:28;;;;;;;8.27;5.50;;;22.30;68.10;;;;;;5095129;28;20151;-40
2023/06/24 07:08:54;;;;;;;9.45;5.00;;;21.90;78.70;;;;;;5095208;28;20048;-39
2023/06/24 07:11:21;;;;;;;8.23;4.80;;;21.10;78.40;;;;;;5094842;28;20074;-40
2023/06/24 07:13:50;;;;;;;9.23;5.47;;;22.40;73.70;;;;;;5091104;28;20044;-38
2023/06/24 07:16:18;;;;;;;8.00;5.68;;;22.10;78.90;;;;;;5078696;28;20058;-31
2023/06/24 07:18:45;;;;;;;7.10;4.93;;;22.00;78.60;;;;;;5084883;28;20127;-31
2023/06/24 07:21:12;;;;;;;5.65;4.82;;;21.80;63.60;;;;;;5077867;28;20612;-33
2023/06/24 07:23:39;;;;;;;8.10;4.85;;;22.70;79.40;;;;;;5094267;28;20481;-41
2023/06/24 07:26:06;;;;;;;7.32;5.38;;;;;;;;;;5094383;28;20468;-35
2023/06/24 07:28:33;;;;;;;6.00;5.03;;;21.80;69.80;;;;;;5095067;28;20131;-37
2023/06/24 07:31:00;;;;;;;6.25;5.30;;;;;;;;;;5081897;28;20424;-34
2023/06/24 07:33:30;;;;;;;7.68;4.97;;;22.50;74.00;;;;;;5091345;28;20048;-39
2023/06/24 07:35:57;;;;;;;4.85;4.35;;;22.00;73.10;;;;;;5088176;28;20053;-37
2023/06/24 07:38:23;;;;;;;6.20;4.78;;;23.10;78.90;;;;;;5084475;28;20040;-39
2023/06/24 07:40:50;;;;;;;5.75;4.57;;;23.10;68.20;;;;;;5088094;28;20312;-36
2023/06/24 07:43:17;;;;;;;6.88;4.70;;;22.50;67.30;;;;;;5092397;28;20475;-39
2023/06/24 07:45:44;;;;;;;7.22;4.90;;;22.50;79.10;;;;;;5094372;28;20040;-39
2023/06/24 07:48:11;;;;;;;6.32;4.32;;;;;;;;;;5092985;28;20048;-37
2023/06/24 07:50:39;;;;;;;6.35;5.03;;;22.40;62.80;;;;;;5090929;28;20054;-37
2023/06/24 07:53:06;;;;;;;5.00;4.47;;;22.40;78.00;;;;;;5076625;28;20055;-37
2023/06/24 07:55:33;;;;;;;5.90;4.82;;;;;;;;;;5084169;28;20120;-37
2023/06/24 07:58:00;;;;;;;7.63;4.72;;;23.10;78.80;;;;;;5083717;28;20388;-38
2023/06/24 08:00:27;;;;;;;6.45;4.53;;;22.40;78.10;;;;;;5092617;28;20094;-38
2023/06/24 08:02:55;;;;;;;5.88;4.70;;;23.50;73.20;;;;;;5092424;28;20048;-36
2023/06/24 08:05:21;;;;;;;5.88;5.13;;;21.80;65.90;;;;;;5093616;28;20580;-40
2023/06/24 08:07:51;;;;;;;5.28;4.75;;;22.90;78.10;;;;;;5093731;28;20143;-32
2023/06/24 08:10:17;;;;;;;6.18;4.93;;;22.20;66.40;;;;;;5093726;28;20477;-33
2023/06/24 08:12:44;;;;;;;6.57;4.57;;;22.70;78.10;;;;;;5090227;28;20127;-33
2023/06/24 08:15:11;;;;;;;5.45;4.70;;;;;;;;;;5093486;28;20123;-39
2023/06/24 08:17:38;;;;;;;7.10;4.70;;;22.40;77.90;;;;;;5093689;28;20135;-32
2023/06/24 08:20:06;;;;;;;7.50;5.07;;;22.50;78.00;;;;;;5093474;28;20560;-32
2023/06/24 08:22:33;;;;;;;8.50;4.95;;;23.10;77.80;;;;;;5082420;28;20080;-31
2023/06/24 08:25:01;;;;;;;7.07;5.18;;;22.30;77.30;;;;;;5090319;28;20044;-32
2023/06/24 08:27:27;;;;;;;6.18;4.72;;;23.00;75.10;;;;;;5092846;28;20130;-31
2023/06/24 08:29:54;;;;;;;6.70;4.63;;;;;;;;;;5078362;28;20413;-34
2023/06/24 08:32:21;;;;;;;6.63;4.85;;;22.60;69.30;;;;;;5086999;28;20123;-31
2023/06/24 08:34:48;;;;;;;7.57;4.75;;;22.70;77.80;;;;;;5093133;28;20052;-32
2023/06/24 08:37:14;;;;;;;8.55;4.78;;;23.20;70.30;;;;;;5092263;28;20416;-32
2023/06/24 08:39:41;;;;;;;7.32;5.20;;;22.70;77.20;;;;;;5093021;28;20135;-32
2023/06/24 08:42:09;;;;;;;6.95;4.78;;;22.90;77.40;;;;;;5087171;28;20052;-33
2023/06/24 08:44:37;;;;;;;6.38;4.47;;;;;;;;;;5082943;28;20040;-36
2023/06/24 08:47:04;;;;;;;6.72;5.05;;;;;;;;;;5092901;28;20058;-35
2023/06/24 08:49:31;;;;;;;6.63;4.75;;;22.50;75.10;;;;;;5084425;28;20127;-32
2023/06/24 08:52:01;;;;;;;5.97;4.75;;;22.50;76.90;;;;;;5092968;28;20131;-31
2023/06/24 08:54:28;;;;;;;8.45;5.22;;;22.60;77.00;;;;;;5092986;28;20045;-31
2023/06/24 08:56:55;;;;;;;6.32;5.03;;;;;;;;;;5089448;28;20568;-34
2023/06/24 08:59:23;;;;;;;6.25;4.65;;;23.00;77.00;;;;;;5080225;28;20496;-32
2023/06/24 09:01:51;;;;;;;5.95;4.55;;;23.20;77.40;;;;;;5078588;28;20233;-32
2023/06/24 09:04:17;;;;;;;7.20;4.97;;;22.70;66.20;;;;;;5080350;28;20063;-33
2023/06/24 09:06:44;;;;;;;5.95;4.70;;;23.10;77.30;;;;;;5078314;28;20501;-32
2023/06/24 09:09:19;;;;;;;5.85;4.38;;;23.10;61.70;;;;;;5082860;28;20399;-36
2023/06/24 09:11:53;;;;;;;6.72;4.43;;;22.70;62.30;;;;;;5080139;28;20421;-37
2023/06/24 09:14:20;;;;;;;6.68;4.38;;;;;;;;;;5078508;28;20040;-38
2023/06/24 09:16:54;;;;;;;6.70;4.65;;;23.10;77.60;;;;;;5085184;28;20127;-31
2023/06/24 09:19:22;;;;;;;6.60;4.75;;;23.60;77.20;;;;;;5091089;28;20040;-33
2023/06/24 09:21:48;;;;;;;6.28;4.50;;;23.10;76.70;;;;;;5094577;28;20389;-32
2023/06/24 09:24:15;;;;;;;6.38;4.75;;;22.90;77.00;;;;;;5098414;28;20131;-33
2023/06/24 09:26:44;;;;;;;5.82;4.90;;;23.20;61.50;;;;;;5084758;28;20143;-35
2023/06/24 09:29:11;;;;;;;5.80;4.65;;;23.60;77.20;;;;;;5088442;28;20051;-32
2023/06/24 09:31:46;;;;;;;6.38;4.22;;;23.00;76.60;;;;;;5097572;28;20130;-32
2023/06/24 09:34:15;;;;;;;8.73;4.53;;;23.30;61.50;;;;;;5091560;28;20515;-32
2023/06/24 09:36:43;;;;;;;6.43;4.18;;;24.20;77.30;;;;;;5083405;28;20045;-32
2023/06/24 09:39:10;;;;;;;6.07;4.10;;;;;;;;;;5093888;28;20238;-37
2023/06/24 09:41:37;;;;;;;5.47;4.10;;;24.00;76.80;;;;;;5097403;28;20566;-32
2023/06/24 09:44:04;;;;;;;6.25;4.25;;;22.90;77.10;;;;;;5095117;28;20054;-31
2023/06/24 09:46:32;;;;;;;5.38;3.88;;;23.80;77.40;;;;;;5097608;28;20127;-32
2023/06/24 09:48:59;;;;;;;6.38;4.10;;;23.60;74.40;;;;;;5097937;28;20051;-32
2023/06/24 09:51:27;;;;;;;6.55;3.67;;;22.80;76.80;;;;;;5097538;28;20181;-32
2023/06/24 09:53:54;;;;;;;6.70;3.95;;;23.50;76.70;;;;;;5091633;28;20058;-31
2023/06/24 09:56:21;;;;;;;6.03;3.72;;;23.30;60.90;;;;;;5085535;28;20047;-35
2023/06/24 09:58:47;;;;;;;5.93;3.80;;;23.20;72.70;;;;;;5090287;28;20412;-32
2023/06/24 10:01:16;;;;;;;4.35;3.55;;;23.70;76.50;;;;;;5088016;28;20065;-31
2023/06/24 10:03:43;;;;;;;5.55;4.57;;;;;;;;;;5077269;28;20074;-37
2023/06/24 10:06:10;;;;;;;5.43;3.47;;;23.90;76.30;;;;;;5099629;28;20073;-32
2023/06/24 10:08:38;;;;;;;5.65;3.90;;;23.40;75.90;;;;;;5098127;28;20051;-31
2023/06/24 10:11:04;;;;;;;6.03;3.88;;;23.30;76.30;;;;;;5093851;28;20123;-32
2023/06/24 10:13:32;;;;;;;8.73;4.25;;;;;;;;;;5099998;28;20043;-35
2023/06/24 10:15:58;;;;;;;7.78;4.18;;;23.10;75.70;;;;;;5092539;28;20044;-32
2023/06/24 10:18:38;;;;;;;12.85;4.97;;;23.40;60.70;;;;;;5088379;28;20055;-36
2023/06/24 10:21:05;;;;;;;11.55;5.28;;;;;;;;;;5093474;28;20087;-32
2023/06/24 10:23:33;;;;;;;12.90;5.43;;;24.20;61.00;;;;;;5087239;28;20126;-35
2023/06/24 10:26:01;;;;;;;9.77;4.82;;;22.70;76.00;;;;;;5085349;28;20127;-31
2023/06/24 10:28:36;;;;;;;8.77;4.57;;;24.60;76.20;;;;;;5102874;28;20138;-32
2023/06/24 10:31:03;;;;;;;7.13;4.45;;;23.50;76.50;;;;;;5097811;28;20074;-32
2023/06/24 10:33:30;;;;;;;7.32;4.40;;;;;;;;;;5102398;28;20127;-35
2023/06/24 10:35:57;;;;;;;5.78;3.85;;;24.10;76.20;;;;;;5092349;28;20133;-33
2023/06/24 10:38:24;;;;;;;7.25;3.97;;;;;;;;;;5088616;28;20135;-37
2023/06/24 10:40:51;;;;;;;7.63;4.18;;;23.60;75.50;;;;;;5099633;28;20131;-32
2023/06/24 10:43:29;;;;;;;7.25;4.32;;;24.30;63.90;;;;;;5098885;28;20353;-32
2023/06/24 10:45:56;;;;;;;7.35;4.28;;;;;;;;;;5098327;28;20048;-33
2023/06/24 10:48:23;;;;;;;5.85;3.55;;;23.20;75.20;;;;;;5095147;28;20048;-31
2023/06/24 10:50:50;;;;;;;5.97;4.03;;;24.00;76.50;;;;;;5091243;28;20416;-32
2023/06/24 10:53:18;;;;;;;5.13;3.60;;;22.80;65.80;;;;;;5099400;28;20058;-32
2023/06/24 10:55:45;;;;;;;5.70;3.70;;;;;;;;;;5088038;28;20041;-34
2023/06/24 10:58:14;;;;;;;4.97;3.50;;;;;;;;;;5085880;28;20044;-32
2023/06/24 11:00:43;;;;;;;7.15;3.90;;;22.80;75.90;;;;;;5093516;28;20040;-40
2023/06/24 11:03:10;;;;;;;4.65;3.50;;;23.20;75.90;;;;;;5099150;28;20051;-41
2023/06/24 11:05:39;;;;;;;5.10;3.75;;;23.70;60.30;;;;;;5091714;28;20116;-36
2023/06/24 11:08:06;;;;;;;5.65;4.18;;;23.00;70.80;;;;;;5097448;28;20135;-39
2023/06/24 11:10:33;;;;;;;6.40;3.80;;;;;;;;;;5101333;28;20044;-32
2023/06/24 11:13:05;;;;;;;4.53;3.50;;;23.10;75.00;;;;;;5099098;28;20134;-32
2023/06/24 11:15:33;;;;;;;5.05;3.83;;;22.80;74.70;;;;;;5091961;28;20042;-32
2023/06/24 11:18:02;;;;;;;4.97;3.65;;;24.30;73.60;;;;;;5086857;28;20058;-32
2023/06/24 11:20:30;;;;;;;6.13;3.97;;;;;;;;;;5095000;28;20040;-36
2023/06/24 11:22:57;;;;;;;4.20;3.63;;;24.20;76.10;;;;;;5106938;28;20412;-32
2023/06/24 11:25:24;;;;;;;4.95;3.85;;;;;;;;;;5095493;28;20075;-35
2023/06/24 11:27:51;;;;;;;4.72;3.85;;;23.90;75.80;;;;;;5102263;28;20139;-32
2023/06/24 11:30:18;;;;;;;5.35;3.55;;;;;;;;;;5100277;28;20138;-37
2023/06/24 11:32:45;;;;;;;6.10;3.60;;;24.10;75.50;;;;;;5097103;28;20404;-31
2023/06/24 11:35:14;;;;;;;6.55;3.50;;;23.90;60.10;;;;;;5095281;28;20040;-34
2023/06/24 11:37:42;;;;;;;4.55;3.63;;;25.00;75.50;;;;;;5101377;28;20556;-32
2023/06/24 11:40:09;;;;;;;5.10;3.72;;;25.10;75.50;;;;;;5095913;28;20044;-33
2023/06/24 11:42:36;;;;;;;6.28;3.83;;;23.90;60.10;;;;;;5093564;28;20049;-35
2023/06/24 11:45:04;;;;;;;3.92;3.35;;;23.70;71.10;;;;;;5098180;28;20123;-32
2023/06/24 11:47:33;;;;;;;4.35;3.40;;;23.90;59.80;;;;;;5099601;28;20122;-38
2023/06/24 11:50:01;;;;;;;4.63;3.70;;;;;;;;;;5098662;28;20055;-32
2023/06/24 11:52:39;;;;;;;4.30;3.50;;;24.20;75.60;;;;;;5087886;28;20087;-32
2023/06/24 11:55:12;;;;;;;6.60;3.80;;;23.80;68.50;;;;;;5102031;28;20047;-32
2023/06/24 11:57:52;;;;;;;5.55;3.67;;;24.40;66.80;;;;;;5088004;28;20109;-34
2023/06/24 12:00:20;;;;;;;5.00;3.70;;;24.00;59.90;;;;;;5094439;28;20047;-35
2023/06/24 12:02:50;;;;;;;4.88;3.50;;;23.60;75.30;;;;;;5100721;28;20050;-33
2023/06/24 12:05:25;;;;;;;5.53;3.38;;;24.90;65.40;;;;;;5101164;28;20135;-33
2023/06/24 12:07:55;;;;;;;4.13;3.40;;;24.10;75.00;;;;;;5106288;28;20044;-32
2023/06/24 12:10:22;;;;;;;4.88;3.60;;;23.70;74.80;;;;;;5100110;28;20122;-31
2023/06/24 12:12:48;;;;;;;4.72;3.65;;;24.10;74.70;;;;;;5102932;28;20146;-32
2023/06/24 12:15:15;;;;;;;4.53;3.83;;;23.90;59.80;;;;;;5094521;28;20131;-37
2023/06/24 12:17:42;;;;;;;5.50;3.50;;;;;;;;;;5096178;28;20127;-33
2023/06/24 12:20:10;;;;;;;4.00;3.42;;;24.10;59.80;;;;;;5107758;28;20130;-35
2023/06/24 12:22:36;;;;;;;4.05;3.47;;;24.30;74.80;;;;;;5094033;28;20119;-33
2023/06/24 12:25:05;;;;;;;4.35;3.25;;;24.10;59.70;;;;;;5088942;28;20041;-35
2023/06/24 12:27:33;;;;;;;5.20;3.40;;;23.30;74.40;;;;;;5099673;28;20127;-33
2023/06/24 12:30:00;;;;;;;4.28;3.65;;;24.50;74.90;;;;;;5098596;28;20055;-33
2023/06/24 12:32:27;;;;;;;4.35;3.33;;;23.70;75.00;;;;;;5099978;28;20055;-32
2023/06/24 12:34:54;;;;;;;6.15;3.30;;;;;;;;;;5096336;28;20122;-34
2023/06/24 12:37:21;;;;;;;4.82;3.40;;;24.10;75.20;;;;;;5082254;28;20047;-33
2023/06/24 12:39:50;;;;;;;4.13;3.50;;;;;;;;;;5101375;28;20128;-33
2023/06/24 12:42:18;;;;;;;4.28;3.30;;;23.70;74.10;;;;;;5105427;28;20052;-32
2023/06/24 12:44:45;;;;;;;3.95;3.38;;;24.90;74.70;;;;;;5101651;28;20043;-32
2023/06/24 12:47:12;;;;;;;5.03;3.20;;;;;;;;;;5098366;28;20045;-35
2023/06/24 12:49:40;;;;;;;4.57;3.38;;;;;;;;;;5098889;28;20131;-37
2023/06/24 12:52:07;;;;;;;3.80;3.40;;;25.10;74.40;;;;;;5101699;28;20054;-32
2023/06/24 12:54:34;;;;;;;3.80;3.03;;;;;;;;;;5092366;28;20072;-32
2023/06/24 12:57:01;;;;;;;3.83;3.00;;;23.70;74.50;;;;;;5100830;28;20043;-33
2023/06/24 12:59:29;;;;;;;3.40;3.10;;;24.30;59.10;;;;;;5097998;28;20134;-33
2023/06/24 13:01:56;;;;;;;4.95;3.05;;;24.40;74.70;;;;;;5080156;28;20052;-32
2023/06/24 13:04:24;;;;;;;5.55;3.40;;;23.90;70.80;;;;;;5093969;28;20146;-32
2023/06/24 13:06:52;;;;;;;3.55;3.13;;;23.60;64.60;;;;;;5095932;28;20044;-33
2023/06/24 13:09:19;;;;;;;4.32;3.03;;;;;;;;;;5096616;28;20126;-38
2023/06/24 13:11:46;;;;;;;3.80;3.17;;;;;;;;;;5102318;28;20051;-32